createdAt,value
2022-12-25T00:02:18.377Z,100962.06
2022-12-25T00:04:45.052Z,101020.44
2022-12-25T00:07:12.542Z,101032.50
2022-12-25T00:09:39.126Z,100997.75
2022-12-25T00:12:05.980Z,101011.75
2022-12-25T00:14:32.573Z,101043.13
2022-12-25T00:16:59.204Z,101046.50
2022-12-25T00:19:25.827Z,101035.25
2022-12-25T00:21:52.391Z,101029.91
2022-12-25T00:24:18.965Z,101061.31
2022-12-25T00:26:45.565Z,101078.66
2022-12-25T00:29:13.255Z,101044.59
2022-12-25T00:31:40.583Z,101076.91
2022-12-25T00:34:07.315Z,101024.63
2022-12-25T00:36:41.188Z,101063.03
2022-12-25T00:39:08.483Z,101058.69
2022-12-25T00:41:53.681Z,101048.94
2022-12-25T00:44:20.303Z,101069.88
2022-12-25T00:46:46.973Z,101079.56
2022-12-25T00:49:13.682Z,101074.44
2022-12-25T00:51:40.455Z,101083.16
2022-12-25T00:54:07.552Z,101070.91
2022-12-25T00:56:34.310Z,101082.31
2022-12-25T00:59:00.974Z,101082.34
2022-12-25T01:01:27.686Z,101068.41
2022-12-25T01:03:55.363Z,101064.94
2022-12-25T01:06:22.035Z,101085.00
2022-12-25T01:09:07.240Z,101102.34
2022-12-25T01:11:33.909Z,101064.88
2022-12-25T01:14:00.607Z,101069.09
2022-12-25T01:16:27.738Z,101054.09
2022-12-25T01:18:54.686Z,101057.47
2022-12-25T01:21:22.291Z,101024.09
2022-12-25T01:23:50.586Z,101064.09
2022-12-25T01:26:18.361Z,101063.03
2022-12-25T01:28:45.005Z,101066.09
2022-12-25T01:31:15.595Z,101090.97
2022-12-25T01:33:44.244Z,101051.63
2022-12-25T01:36:19.413Z,101094.47
2022-12-25T01:38:46.445Z,101079.50
2022-12-25T01:41:14.672Z,101082.03
2022-12-25T01:44:02.408Z,101102.19
2022-12-25T01:46:30.428Z,101077.66
2022-12-25T01:48:59.184Z,101097.13
2022-12-25T01:51:54.597Z,101100.56
2022-12-25T01:54:29.431Z,101058.72
2022-12-25T01:56:59.883Z,101108.44
2022-12-25T01:59:27.953Z,101111.91
2022-12-25T02:01:54.688Z,101117.22
2022-12-25T02:04:38.945Z,101136.25
2022-12-25T02:07:17.831Z,101131.91
2022-12-25T02:09:45.167Z,101118.88
2022-12-25T02:12:34.085Z,101126.00
2022-12-25T02:15:06.157Z,101131.00
2022-12-25T02:18:02.205Z,101103.00
2022-12-25T02:20:31.936Z,101142.13
2022-12-25T02:23:35.971Z,101137.88
2022-12-25T02:26:05.332Z,101108.38
2022-12-25T02:28:46.264Z,101098.91
2022-12-25T02:31:40.054Z,101109.47
2022-12-25T02:34:22.712Z,101111.09
2022-12-25T02:36:57.592Z,101143.50
2022-12-25T02:39:46.808Z,101150.53
2022-12-25T02:42:46.044Z,101113.59
2022-12-25T02:45:34.676Z,101135.53
2022-12-25T02:48:21.007Z,101153.94
2022-12-25T02:51:06.874Z,101110.66
2022-12-25T02:53:53.614Z,101102.88
2022-12-25T02:56:41.489Z,101143.03
2022-12-25T02:59:26.801Z,101134.34
2022-12-25T03:02:13.396Z,101132.59
2022-12-25T03:05:00.737Z,101141.94
2022-12-25T03:07:30.113Z,101133.38
2022-12-25T03:10:21.671Z,101156.94
2022-12-25T03:12:56.028Z,101126.44
2022-12-25T03:15:41.954Z,101158.66
2022-12-25T03:18:14.511Z,101170.84
2022-12-25T03:21:00.191Z,101168.13
2022-12-25T03:23:51.165Z,101136.63
2022-12-25T03:26:36.961Z,101156.69
2022-12-25T03:29:04.024Z,101174.84
2022-12-25T03:31:30.566Z,101175.88
2022-12-25T03:34:33.871Z,101169.06
2022-12-25T03:37:36.210Z,101157.69
2022-12-25T03:40:53.499Z,101180.38
2022-12-25T03:43:38.387Z,101194.28
2022-12-25T03:46:29.005Z,101187.38
2022-12-25T03:49:23.756Z,101172.69
2022-12-25T03:52:11.293Z,101172.81
2022-12-25T03:54:59.819Z,101177.22
2022-12-25T03:57:45.201Z,101174.66
2022-12-25T04:00:30.822Z,101169.59
2022-12-25T04:03:16.107Z,101180.09
2022-12-25T04:06:01.000Z,101181.88
2022-12-25T04:09:03.193Z,101185.31
2022-12-25T04:11:48.540Z,101180.97
2022-12-25T04:14:33.968Z,101192.28
2022-12-25T04:17:39.002Z,101166.97
2022-12-25T04:20:24.844Z,101181.78
2022-12-25T04:23:10.211Z,101199.16
2022-12-25T04:25:55.163Z,101214.72
2022-12-25T04:28:39.967Z,101214.69
2022-12-25T04:31:25.516Z,101215.25
2022-12-25T04:34:10.838Z,101230.13
2022-12-25T04:36:37.544Z,101235.03
2022-12-25T04:39:04.214Z,101235.63
2022-12-25T04:41:30.934Z,101235.63
2022-12-25T04:43:57.762Z,101227.78
2022-12-25T04:46:24.441Z,101230.28
2022-12-25T04:48:51.084Z,101195.31
2022-12-25T04:51:20.592Z,101208.22
2022-12-25T04:53:48.819Z,101161.78
2022-12-25T04:56:16.537Z,101227.44
2022-12-25T04:58:44.539Z,101246.59
2022-12-25T05:01:12.571Z,101254.28
2022-12-25T05:03:39.317Z,101265.59
2022-12-25T05:06:07.324Z,101278.56
2022-12-25T05:08:35.410Z,101283.47
2022-12-25T05:11:06.207Z,101276.44
2022-12-25T05:13:32.857Z,101288.53
2022-12-25T05:15:59.628Z,101277.06
2022-12-25T05:18:26.384Z,101282.22
2022-12-25T05:20:54.640Z,101275.94
2022-12-25T05:23:22.362Z,101264.41
2022-12-25T05:25:49.094Z,101302.88
2022-12-25T05:28:15.947Z,101302.22
2022-12-25T05:30:42.595Z,101253.25
2022-12-25T05:33:09.240Z,101307.66
2022-12-25T05:35:38.088Z,101310.22
2022-12-25T05:38:06.012Z,101288.41
2022-12-25T05:40:33.245Z,101322.53
2022-12-25T05:42:59.928Z,101328.59
2022-12-25T05:45:26.664Z,101333.09
2022-12-25T05:47:53.469Z,101326.94
2022-12-25T05:50:20.098Z,101355.66
2022-12-25T05:52:46.821Z,101352.25
2022-12-25T05:55:13.442Z,101348.81
2022-12-25T05:57:41.230Z,101363.59
2022-12-25T06:00:08.755Z,101342.41
2022-12-25T06:02:37.263Z,101343.56
2022-12-25T06:05:05.103Z,101337.56
2022-12-25T06:07:31.797Z,101334.00
2022-12-25T06:09:58.507Z,101338.41
2022-12-25T06:12:25.136Z,101333.66
2022-12-25T06:14:51.729Z,101348.72
2022-12-25T06:17:18.395Z,101364.28
2022-12-25T06:19:45.065Z,101360.69
2022-12-25T06:22:11.750Z,101369.13
2022-12-25T06:24:38.672Z,101382.09
2022-12-25T06:27:05.306Z,101375.19
2022-12-25T06:29:31.880Z,101380.31
2022-12-25T06:31:59.099Z,101387.22
2022-12-25T06:34:25.974Z,101379.84
2022-12-25T06:36:53.177Z,101392.13
2022-12-25T06:39:21.471Z,101395.69
2022-12-25T06:41:48.606Z,101392.97
2022-12-25T06:44:15.227Z,101404.97
2022-12-25T06:46:41.836Z,101351.44
2022-12-25T06:49:10.127Z,101367.91
2022-12-25T06:51:36.709Z,101437.22
2022-12-25T06:54:04.110Z,101439.22
2022-12-25T06:56:32.121Z,101430.84
2022-12-25T06:59:08.298Z,101425.63
2022-12-25T07:01:48.925Z,101423.84
2022-12-25T07:04:24.007Z,101444.97
2022-12-25T07:06:50.712Z,101447.91
2022-12-25T07:09:17.349Z,101454.16
2022-12-25T07:11:43.997Z,101412.28
2022-12-25T07:14:23.862Z,101453.75
2022-12-25T07:16:51.027Z,101452.91
2022-12-25T07:19:17.763Z,101445.22
2022-12-25T07:21:44.347Z,101402.38
2022-12-25T07:24:10.939Z,101457.78
2022-12-25T07:26:37.575Z,101420.22
2022-12-25T07:29:04.179Z,101451.03
2022-12-25T07:31:30.777Z,101453.88
2022-12-25T07:33:57.398Z,101467.09
2022-12-25T07:36:24.112Z,101431.34
2022-12-25T07:38:51.580Z,101455.28
2022-12-25T07:41:18.208Z,101458.13
2022-12-25T07:43:44.850Z,101463.69
2022-12-25T07:46:11.856Z,101453.44
2022-12-25T07:48:38.676Z,101433.41
2022-12-25T07:51:07.845Z,101430.91
2022-12-25T07:53:35.474Z,101439.72
2022-12-25T07:56:07.766Z,101464.41
2022-12-25T07:58:34.695Z,101467.13
2022-12-25T08:01:07.747Z,101456.75
2022-12-25T08:03:35.678Z,101421.84
2022-12-25T08:06:04.959Z,101451.72
2022-12-25T08:08:31.607Z,101439.59
2022-12-25T08:10:58.353Z,101440.53
2022-12-25T08:13:25.115Z,101429.25
2022-12-25T08:15:58.561Z,101436.34
2022-12-25T08:18:29.982Z,101390.91
2022-12-25T08:20:57.241Z,101456.47
2022-12-25T08:23:23.804Z,101443.38
2022-12-25T08:25:50.384Z,101426.81
2022-12-25T08:28:16.936Z,101417.22
2022-12-25T08:30:43.678Z,101451.31
2022-12-25T08:33:10.319Z,101427.72
2022-12-25T08:35:37.216Z,101424.16
2022-12-25T08:38:03.829Z,101437.31
2022-12-25T08:40:30.386Z,101441.66
2022-12-25T08:42:57.307Z,101447.75
2022-12-25T08:45:27.403Z,101446.84
2022-12-25T08:47:57.947Z,101447.72
2022-12-25T08:50:24.992Z,101449.44
2022-12-25T08:52:51.777Z,101442.38
2022-12-25T08:55:18.453Z,101451.13
2022-12-25T08:57:45.064Z,101415.22
2022-12-25T09:00:12.115Z,101411.59
2022-12-25T09:02:38.913Z,101441.22
2022-12-25T09:05:06.204Z,101411.44
2022-12-25T09:07:32.776Z,101429.66
2022-12-25T09:09:59.383Z,101445.34
2022-12-25T09:12:26.026Z,101427.91
2022-12-25T09:14:52.684Z,101387.72
2022-12-25T09:17:22.071Z,101415.53
2022-12-25T09:19:48.668Z,101415.44
2022-12-25T09:22:15.318Z,101433.81
2022-12-25T09:24:43.692Z,101423.34
2022-12-25T09:27:10.299Z,101401.41
2022-12-25T09:29:36.926Z,101437.88
2022-12-25T09:32:03.682Z,101403.59
2022-12-25T09:34:30.342Z,101439.34
2022-12-25T09:36:57.087Z,101415.47
2022-12-25T09:39:24.823Z,101419.78
2022-12-25T09:42:04.434Z,101356.91
2022-12-25T09:44:55.417Z,101408.97
2022-12-25T09:47:37.085Z,101404.91
2022-12-25T09:50:12.755Z,101375.88
2022-12-25T09:52:48.622Z,101409.03
2022-12-25T09:55:24.374Z,101373.97
2022-12-25T09:58:00.597Z,101396.19
2022-12-25T10:00:40.720Z,101313.41
2022-12-25T10:03:13.563Z,101396.06
2022-12-25T10:05:55.451Z,101389.75
2022-12-25T10:08:27.892Z,101400.22
2022-12-25T10:11:00.516Z,101396.47
2022-12-25T10:13:45.463Z,101386.88
2022-12-25T10:16:21.085Z,101386.59
2022-12-25T10:18:47.727Z,101380.50
2022-12-25T10:21:18.335Z,101345.50
2022-12-25T10:23:53.643Z,101387.47
2022-12-25T10:26:22.686Z,101385.72
2022-12-25T10:29:04.580Z,101356.81
2022-12-25T10:31:36.186Z,101368.63
2022-12-25T10:34:04.536Z,101376.44
2022-12-25T10:36:31.936Z,101379.16
2022-12-25T10:38:58.562Z,101333.41
2022-12-25T10:42:04.241Z,101374.22
2022-12-25T10:44:32.381Z,101373.25
2022-12-25T10:46:59.804Z,101382.75
2022-12-25T10:49:46.768Z,101377.78
2022-12-25T10:52:21.258Z,101329.88
2022-12-25T10:54:48.006Z,101345.13
2022-12-25T10:57:18.008Z,101377.16
2022-12-25T10:59:48.839Z,101385.03
2022-12-25T11:02:36.304Z,101359.78
2022-12-25T11:05:29.612Z,101366.63
2022-12-25T11:07:57.077Z,101377.63
2022-12-25T11:10:32.876Z,101372.84
2022-12-25T11:13:00.958Z,101374.16
2022-12-25T11:15:43.353Z,101351.91
2022-12-25T11:18:49.280Z,101372.88
2022-12-25T11:21:26.269Z,101300.91
2022-12-25T11:24:00.735Z,101372.72
2022-12-25T11:26:30.281Z,101364.72
2022-12-25T11:28:58.204Z,101372.47
2022-12-25T11:31:40.781Z,101364.00
2022-12-25T11:34:17.707Z,101383.31
2022-12-25T11:36:47.195Z,101369.25
2022-12-25T11:39:29.458Z,101369.06
2022-12-25T11:42:26.483Z,101367.34
2022-12-25T11:45:08.845Z,101362.81
2022-12-25T11:48:26.293Z,101372.13
2022-12-25T11:50:59.302Z,101373.91
2022-12-25T11:53:35.063Z,101357.63
2022-12-25T11:56:06.738Z,101373.78
2022-12-25T11:58:39.142Z,101381.66
2022-12-25T12:01:17.349Z,101377.97
2022-12-25T12:03:44.969Z,101381.81
2022-12-25T12:06:47.874Z,101356.31
2022-12-25T12:09:44.185Z,101377.50
2022-12-25T12:12:16.602Z,101353.94
2022-12-25T12:15:08.473Z,101383.59
2022-12-25T12:17:35.335Z,101392.72
2022-12-25T12:20:28.746Z,101363.91
2022-12-25T12:22:56.180Z,101374.75
2022-12-25T12:25:23.051Z,101378.28
2022-12-25T12:28:21.738Z,101390.81
2022-12-25T12:31:06.999Z,101380.22
2022-12-25T12:33:39.486Z,101351.59
2022-12-25T12:36:09.950Z,101368.41
2022-12-25T12:38:37.200Z,101378.88
2022-12-25T12:41:07.161Z,101336.22
2022-12-25T12:43:44.947Z,101384.13
2022-12-25T12:46:24.493Z,101386.69
2022-12-25T12:49:21.210Z,101406.97
2022-12-25T12:51:49.287Z,101399.94
2022-12-25T12:54:26.153Z,101380.81
2022-12-25T12:56:55.816Z,101420.09
2022-12-25T12:59:23.500Z,101421.97
2022-12-25T13:02:18.862Z,101414.06
2022-12-25T13:05:05.929Z,101415.06
2022-12-25T13:07:53.799Z,101387.38
2022-12-25T13:10:36.612Z,101409.84
2022-12-25T13:13:12.731Z,101392.72
2022-12-25T13:15:39.571Z,101418.00
2022-12-25T13:18:10.880Z,101397.97
2022-12-25T13:20:47.131Z,101343.22
2022-12-25T13:23:35.122Z,101389.72
2022-12-25T13:26:14.863Z,101363.44
2022-12-25T13:28:41.719Z,101424.47
2022-12-25T13:31:18.839Z,101393.03
2022-12-25T13:33:58.078Z,101416.69
2022-12-25T13:36:26.841Z,101431.44
2022-12-25T13:38:57.951Z,101403.69
2022-12-25T13:41:46.232Z,101402.00
2022-12-25T13:44:20.801Z,101407.59
2022-12-25T13:46:48.217Z,101437.28
2022-12-25T13:49:20.613Z,101427.53
2022-12-25T13:51:48.684Z,101437.38
2022-12-25T13:54:17.409Z,101460.44
2022-12-25T13:56:50.425Z,101450.00
2022-12-25T13:59:21.269Z,101412.69
2022-12-25T14:01:49.637Z,101451.03
2022-12-25T14:04:20.138Z,101453.81
2022-12-25T14:06:48.086Z,101446.09
2022-12-25T14:09:15.913Z,101452.19
2022-12-25T14:11:48.958Z,101451.16
2022-12-25T14:14:22.083Z,101423.88
2022-12-25T14:16:51.646Z,101453.56
2022-12-25T14:19:33.464Z,101457.22
2022-12-25T14:22:17.209Z,101448.34
2022-12-25T14:24:44.074Z,101459.94
2022-12-25T14:27:32.528Z,101461.81
2022-12-25T14:30:00.725Z,101473.44
2022-12-25T14:32:30.072Z,101471.69
2022-12-25T14:34:59.627Z,101444.97
2022-12-25T14:37:30.900Z,101469.59
2022-12-25T14:40:05.144Z,101467.22
2022-12-25T14:42:36.045Z,101479.78
2022-12-25T14:45:25.573Z,101477.34
2022-12-25T14:47:53.478Z,101488.13
2022-12-25T14:50:30.724Z,101501.47
2022-12-25T14:52:59.022Z,101492.16
2022-12-25T14:55:28.694Z,101496.03
2022-12-25T14:58:04.984Z,101486.88
2022-12-25T15:00:39.834Z,101503.31
2022-12-25T15:03:27.111Z,101509.38
2022-12-25T15:06:19.524Z,101522.53
2022-12-25T15:09:16.697Z,101520.84
2022-12-25T15:11:43.595Z,101522.66
2022-12-25T15:14:10.233Z,101521.00
2022-12-25T15:16:50.929Z,101521.94
2022-12-25T15:19:27.261Z,101502.88
2022-12-25T15:21:54.556Z,101523.94
2022-12-25T15:24:22.338Z,101526.66
2022-12-25T15:26:48.978Z,101530.22
2022-12-25T15:29:38.172Z,101527.63
2022-12-25T15:32:21.318Z,101525.06
2022-12-25T15:34:50.145Z,101526.81
2022-12-25T15:37:18.998Z,101540.84
2022-12-25T15:39:46.414Z,101535.59
2022-12-25T15:42:15.388Z,101548.72
2022-12-25T15:44:45.278Z,101549.66
2022-12-25T15:47:14.682Z,101561.97
2022-12-25T15:49:44.342Z,101551.47
2022-12-25T15:52:14.348Z,101513.91
2022-12-25T15:54:41.062Z,101539.41
2022-12-25T15:57:19.613Z,101556.09
2022-12-25T15:59:46.887Z,101522.97
2022-12-25T16:02:17.689Z,101486.28
2022-12-25T16:04:44.819Z,101518.59
2022-12-25T16:07:19.748Z,101505.50
2022-12-25T16:09:46.802Z,101555.34
2022-12-25T16:12:13.503Z,101555.38
2022-12-25T16:14:40.214Z,101564.13
2022-12-25T16:17:07.445Z,101557.13
2022-12-25T16:19:34.330Z,101530.91
2022-12-25T16:22:01.000Z,101542.25
2022-12-25T16:24:28.645Z,101577.25
2022-12-25T16:26:55.277Z,101581.59
2022-12-25T16:29:21.884Z,101548.38
2022-12-25T16:31:48.565Z,101573.72
2022-12-25T16:34:15.293Z,101573.72
2022-12-25T16:36:41.896Z,101584.19
2022-12-25T16:39:08.569Z,101568.44
2022-12-25T16:41:35.205Z,101594.69
2022-12-25T16:44:09.489Z,101594.69
2022-12-25T16:46:37.624Z,101595.56
2022-12-25T16:49:04.379Z,101595.56
2022-12-25T16:51:31.419Z,101578.06
2022-12-25T16:53:58.561Z,101613.94
2022-12-25T16:56:27.108Z,101571.94
2022-12-25T16:58:55.007Z,101600.81
2022-12-25T17:01:23.071Z,101598.19
2022-12-25T17:03:50.127Z,101624.41
2022-12-25T17:06:28.309Z,101612.13
2022-12-25T17:08:58.868Z,101607.56
2022-12-25T17:11:29.857Z,101612.66
2022-12-25T17:13:58.786Z,101638.88
2022-12-25T17:16:28.170Z,101638.06
2022-12-25T17:19:01.450Z,101637.78
2022-12-25T17:21:28.995Z,101631.44
2022-12-25T17:24:01.706Z,101656.09
2022-12-25T17:26:30.862Z,101642.03
2022-12-25T17:28:57.552Z,101650.72
2022-12-25T17:31:24.508Z,101620.03
2022-12-25T17:33:51.181Z,101651.53
2022-12-25T17:36:20.190Z,101658.59
2022-12-25T17:38:47.731Z,101667.41
2022-12-25T17:41:16.654Z,101659.47
2022-12-25T17:43:45.708Z,101607.75
2022-12-25T17:46:23.810Z,101654.25
2022-12-25T17:48:51.884Z,101658.53
2022-12-25T17:51:21.920Z,101655.09
2022-12-25T17:53:52.446Z,101665.47
2022-12-25T17:56:20.773Z,101655.91
2022-12-25T17:58:58.507Z,101671.66
2022-12-25T18:01:27.014Z,101603.25
2022-12-25T18:03:54.577Z,101677.72
2022-12-25T18:06:24.443Z,101637.38
2022-12-25T18:08:51.148Z,101668.75
2022-12-25T18:11:20.640Z,101641.50
2022-12-25T18:13:51.221Z,101679.00
2022-12-25T18:16:19.570Z,101680.84
2022-12-25T18:18:51.719Z,101679.91
2022-12-25T18:21:20.547Z,101688.63
2022-12-25T18:23:47.844Z,101688.59
2022-12-25T18:26:14.942Z,101657.84
2022-12-25T18:28:42.668Z,101658.59
2022-12-25T18:31:21.895Z,101694.50
2022-12-25T18:33:49.754Z,101698.84
2022-12-25T18:36:20.326Z,101698.72
2022-12-25T18:38:48.331Z,101694.00
2022-12-25T18:41:15.275Z,101704.53
2022-12-25T18:43:54.283Z,101721.91
2022-12-25T18:46:26.702Z,101700.88
2022-12-25T18:48:55.091Z,101705.97
2022-12-25T18:51:22.105Z,101721.63
2022-12-25T18:53:48.878Z,101732.06
2022-12-25T18:56:17.602Z,101707.53
2022-12-25T18:58:44.719Z,101712.88
2022-12-25T19:01:11.646Z,101721.53
2022-12-25T19:03:38.373Z,101698.28
2022-12-25T19:06:05.100Z,101719.91
2022-12-25T19:08:31.807Z,101713.19
2022-12-25T19:10:58.421Z,101720.00
2022-12-25T19:13:25.080Z,101744.63
2022-12-25T19:15:52.546Z,101719.09
2022-12-25T19:18:19.193Z,101758.81
2022-12-25T19:20:45.797Z,101766.47
2022-12-25T19:23:12.518Z,101736.78
2022-12-25T19:25:40.482Z,101759.81
2022-12-25T19:28:07.053Z,101767.41
2022-12-25T19:30:33.858Z,101753.69
2022-12-25T19:33:00.668Z,101759.09
2022-12-25T19:35:27.332Z,101771.84
2022-12-25T19:37:53.982Z,101776.28
2022-12-25T19:40:20.704Z,101737.41
2022-12-25T19:42:47.297Z,101763.94
2022-12-25T19:45:13.952Z,101771.91
2022-12-25T19:47:44.257Z,101762.63
2022-12-25T19:50:11.057Z,101757.69
2022-12-25T19:52:37.726Z,101753.81
2022-12-25T19:55:04.661Z,101769.06
2022-12-25T19:57:31.296Z,101773.38
2022-12-25T19:59:59.005Z,101752.63
2022-12-25T20:02:25.913Z,101752.19
2022-12-25T20:04:52.660Z,101763.41
2022-12-25T20:07:19.373Z,101767.72
2022-12-25T20:09:46.094Z,101770.22
2022-12-25T20:12:15.018Z,101777.16
2022-12-25T20:14:41.765Z,101809.88
2022-12-25T20:17:13.689Z,101765.81
2022-12-25T20:19:42.286Z,101732.59
2022-12-25T20:22:08.899Z,101752.94
2022-12-25T20:24:35.993Z,101768.59
2022-12-25T20:27:03.208Z,101748.47
2022-12-25T20:29:30.113Z,101774.09
2022-12-25T20:31:56.795Z,101771.41
2022-12-25T20:34:23.501Z,101767.16
2022-12-25T20:36:50.226Z,101740.81
2022-12-25T20:39:17.038Z,101783.00
2022-12-25T20:41:43.715Z,101785.50
2022-12-25T20:44:15.601Z,101790.50
2022-12-25T20:46:42.751Z,101779.72
2022-12-25T20:49:09.481Z,101774.44
2022-12-25T20:51:36.154Z,101776.13
2022-12-25T20:54:07.628Z,101782.13
2022-12-25T20:56:35.302Z,101792.75
2022-12-25T20:59:02.264Z,101797.16
2022-12-25T21:01:30.656Z,101791.31
2022-12-25T21:03:58.587Z,101721.13
2022-12-25T21:06:25.260Z,101795.00
2022-12-25T21:08:51.930Z,101798.59
2022-12-25T21:11:18.629Z,101793.28
2022-12-25T21:13:46.299Z,101796.81
2022-12-25T21:16:19.062Z,101796.06
2022-12-25T21:18:46.847Z,101813.22
2022-12-25T21:21:14.015Z,101806.47
2022-12-25T21:23:41.263Z,101804.06
2022-12-25T21:26:19.096Z,101814.41
2022-12-25T21:28:47.681Z,101803.28
2022-12-25T21:31:14.624Z,101814.69
2022-12-25T21:33:53.785Z,101833.09
2022-12-25T21:36:27.295Z,101830.50
2022-12-25T21:39:06.470Z,101840.47
2022-12-25T21:41:35.028Z,101850.75
2022-12-25T21:44:02.011Z,101845.78
2022-12-25T21:46:29.429Z,101847.97
2022-12-25T21:48:57.045Z,101850.06
2022-12-25T21:51:45.339Z,101841.53
2022-12-25T21:54:13.411Z,101862.31
2022-12-25T21:56:44.616Z,101856.28
2022-12-25T21:59:15.853Z,101864.78
2022-12-25T22:01:42.943Z,101865.69
2022-12-25T22:04:10.059Z,101867.38
2022-12-25T22:06:55.290Z,101846.91
2022-12-25T22:09:22.728Z,101836.34
2022-12-25T22:12:07.933Z,101855.00
2022-12-25T22:14:57.357Z,101825.75
2022-12-25T22:17:45.658Z,101863.81
2022-12-25T22:20:16.188Z,101874.97
2022-12-25T22:22:43.484Z,101874.84
2022-12-25T22:25:11.015Z,101878.16
2022-12-25T22:27:39.194Z,101886.50
2022-12-25T22:30:08.042Z,101887.94
2022-12-25T22:32:34.923Z,101879.59
2022-12-25T22:35:01.803Z,101870.34
2022-12-25T22:37:28.629Z,101890.09
2022-12-25T22:39:55.407Z,101901.72
2022-12-25T22:42:22.399Z,101889.19
2022-12-25T22:44:49.283Z,101882.25
2022-12-25T22:47:15.901Z,101816.44
2022-12-25T22:49:42.479Z,101873.94
2022-12-25T22:52:09.950Z,101867.16
2022-12-25T22:54:36.686Z,101867.91
2022-12-25T22:57:04.100Z,101845.66
2022-12-25T22:59:32.845Z,101890.28
2022-12-25T23:02:00.872Z,101846.97
2022-12-25T23:04:28.566Z,101888.88
2022-12-25T23:06:55.624Z,101886.53
2022-12-25T23:09:27.696Z,101889.84
2022-12-25T23:11:56.485Z,101907.13
2022-12-25T23:14:39.910Z,101883.13
2022-12-25T23:17:32.683Z,101869.31
2022-12-25T23:20:19.125Z,101890.84
2022-12-25T23:23:04.875Z,101895.09
2022-12-25T23:25:49.993Z,101907.69
2022-12-25T23:28:36.651Z,101870.00
2022-12-25T23:31:03.492Z,101891.63
2022-12-25T23:33:30.507Z,101869.28
2022-12-25T23:35:57.152Z,101903.47
2022-12-25T23:38:23.735Z,101907.09
2022-12-25T23:40:50.338Z,101904.41
2022-12-25T23:43:17.073Z,101870.78
2022-12-25T23:45:43.701Z,101898.47
2022-12-25T23:48:10.318Z,101907.59
2022-12-25T23:50:37.178Z,101826.22
2022-12-25T23:53:03.816Z,101904.72
2022-12-25T23:55:30.475Z,101912.44
2022-12-25T23:57:57.122Z,101913.63
